Terminal Aerodrome Forecast
Issued by NWS

Home | Current Version | Previous Version | Text Only | Print | Product List | Glossary On
Versions: 1 2 3 4 5 6 7 8 9 10 11 12 13 14 15 16 17 18 19 20 21 22 23 24 25 26
131
FTUS45 KRIW 162323
TAFPNA
TAF
KPNA 162323Z 1700/1724 VRB04KT P6SM SKC
     FM170700 VRB03KT P6SM VCFG SCT003
     FM171000 VRB03KT 1SM BR OVC004
     FM171700 30005KT P6SM FEW005
      AMD LTD TO CLD VIS AND WIND=

USA.gov is the U.S. government's official web portal to all federal, state and local government web resources and services.